createdAt,value
2019-02-14T00:01:35.426Z,99.90
2019-02-14T00:04:22.574Z,99.90
2019-02-14T00:07:09.678Z,99.90
2019-02-14T00:09:56.574Z,99.90
2019-02-14T00:12:43.530Z,99.90
2019-02-14T00:15:30.267Z,99.90
2019-02-14T00:18:17.304Z,99.90
2019-02-14T00:21:04.230Z,99.90
2019-02-14T00:23:50.918Z,99.90
2019-02-14T00:26:37.598Z,99.90
2019-02-14T00:29:24.354Z,99.90
2019-02-14T00:32:10.998Z,99.90
2019-02-14T00:34:57.724Z,99.90
2019-02-14T00:37:44.662Z,99.90
2019-02-14T00:40:32.033Z,99.90
2019-02-14T00:43:18.926Z,99.90
2019-02-14T00:46:05.568Z,99.90
2019-02-14T00:48:52.225Z,99.90
2019-02-14T00:51:38.902Z,99.90
2019-02-14T00:54:26.266Z,99.90
2019-02-14T00:57:12.953Z,99.90
2019-02-14T01:00:00.302Z,99.90
2019-02-14T01:02:47.868Z,99.90
2019-02-14T01:05:34.922Z,99.90
2019-02-14T01:08:22.118Z,99.90
2019-02-14T01:11:08.864Z,99.90
2019-02-14T01:13:55.750Z,99.90
2019-02-14T01:16:42.736Z,99.90
2019-02-14T01:19:29.609Z,99.90
2019-02-14T01:22:16.477Z,99.90
2019-02-14T01:25:03.323Z,99.90
2019-02-14T01:27:50.313Z,99.90
2019-02-14T01:30:37.322Z,99.90
2019-02-14T01:33:24.558Z,99.90
2019-02-14T01:36:11.691Z,99.90
2019-02-14T01:38:59.190Z,99.90
2019-02-14T01:41:46.091Z,99.90
2019-02-14T01:44:33.059Z,99.90
2019-02-14T01:47:20.122Z,99.90
2019-02-14T01:50:08.742Z,99.90
2019-02-14T01:52:55.853Z,99.90
2019-02-14T01:55:42.665Z,99.90
2019-02-14T01:58:29.577Z,99.90
2019-02-14T02:01:16.232Z,99.90
2019-02-14T02:04:02.975Z,99.90
2019-02-14T02:06:49.802Z,99.90
2019-02-14T02:09:36.465Z,99.90
2019-02-14T02:12:23.245Z,99.90
2019-02-14T02:15:11.370Z,99.90
2019-02-14T02:17:58.572Z,99.90
2019-02-14T02:20:45.529Z,99.90
2019-02-14T02:23:32.418Z,99.90
2019-02-14T02:26:19.422Z,99.90
2019-02-14T02:29:06.094Z,99.90
2019-02-14T02:31:53.272Z,99.90
2019-02-14T02:34:40.784Z,99.90
2019-02-14T02:37:27.345Z,99.90
2019-02-14T02:40:14.486Z,99.90
2019-02-14T02:43:01.518Z,99.90
2019-02-14T02:45:48.214Z,99.90
2019-02-14T02:48:34.902Z,99.90
2019-02-14T02:51:22.094Z,99.90
2019-02-14T02:54:09.282Z,99.90
2019-02-14T02:56:56.023Z,99.90
2019-02-14T02:59:43.336Z,99.90
2019-02-14T03:02:30.030Z,99.90
2019-02-14T03:05:16.960Z,99.90
2019-02-14T03:08:03.723Z,99.90
2019-02-14T03:10:50.495Z,99.90
2019-02-14T03:13:37.618Z,99.90
2019-02-14T03:16:24.655Z,99.90
2019-02-14T03:19:11.564Z,99.90
2019-02-14T03:21:59.050Z,99.90
2019-02-14T03:24:45.691Z,99.90
2019-02-14T03:27:32.458Z,99.90
2019-02-14T03:30:19.119Z,99.90
2019-02-14T03:33:06.358Z,99.90
2019-02-14T03:35:53.510Z,99.90
2019-02-14T03:38:40.326Z,99.90
2019-02-14T03:41:27.270Z,99.90
2019-02-14T03:44:14.134Z,99.90
2019-02-14T03:47:01.279Z,99.90
2019-02-14T03:49:48.019Z,99.90
2019-02-14T03:52:35.650Z,99.90
2019-02-14T03:55:22.610Z,99.90
2019-02-14T03:58:09.195Z,99.90
2019-02-14T04:00:55.947Z,99.90
2019-02-14T04:03:42.719Z,99.90
2019-02-14T04:06:29.384Z,99.90
2019-02-14T04:09:16.473Z,99.90
2019-02-14T04:12:03.310Z,99.90
2019-02-14T04:14:50.098Z,99.90
2019-02-14T04:17:36.787Z,99.90
2019-02-14T04:20:24.022Z,99.90
2019-02-14T04:23:11.058Z,99.90
2019-02-14T04:25:57.978Z,99.90
2019-02-14T04:28:44.974Z,99.90
2019-02-14T04:31:32.040Z,99.90
2019-02-14T04:34:19.398Z,99.90
2019-02-14T04:37:06.282Z,99.90
2019-02-14T04:39:53.337Z,99.90
2019-02-14T04:42:39.955Z,99.90
2019-02-14T04:45:26.922Z,99.90
2019-02-14T04:48:13.637Z,99.90
2019-02-14T04:51:01.058Z,99.90
2019-02-14T04:53:48.038Z,99.90
2019-02-14T04:56:35.146Z,99.90
2019-02-14T04:59:22.274Z,99.90
2019-02-14T05:02:09.009Z,99.90
2019-02-14T05:04:55.834Z,99.90
2019-02-14T05:07:42.521Z,99.90
2019-02-14T05:10:31.454Z,99.90
2019-02-14T05:13:18.636Z,99.90
2019-02-14T05:16:05.989Z,99.90
2019-02-14T05:18:53.235Z,99.90
2019-02-14T05:21:39.849Z,99.90
2019-02-14T05:24:26.670Z,99.90
2019-02-14T05:27:13.421Z,99.90
2019-02-14T05:30:00.403Z,99.90
2019-02-14T05:32:47.635Z,99.90
2019-02-14T05:35:34.335Z,99.90
2019-02-14T05:38:40.326Z,99.90
2019-02-14T05:41:27.170Z,99.90
2019-02-14T05:44:13.889Z,99.90
2019-02-14T05:47:00.976Z,99.90
2019-02-14T05:49:48.362Z,99.90
2019-02-14T05:52:35.417Z,99.90
2019-02-14T05:55:22.475Z,99.90
2019-02-14T05:58:09.175Z,99.90
2019-02-14T06:00:55.941Z,99.90
2019-02-14T06:03:43.038Z,99.90
2019-02-14T06:06:29.990Z,99.90
2019-02-14T06:09:17.222Z,99.90
2019-02-14T06:12:03.907Z,99.90
2019-02-14T06:14:50.651Z,99.90
2019-02-14T06:17:37.943Z,99.90
2019-02-14T06:20:24.659Z,99.90
2019-02-14T06:23:11.347Z,99.90
2019-02-14T06:25:58.390Z,99.90
2019-02-14T06:28:45.515Z,99.90
2019-02-14T06:31:32.374Z,99.90
2019-02-14T06:34:19.707Z,99.90
2019-02-14T06:37:09.636Z,99.90
2019-02-14T06:39:55.250Z,99.90
2019-02-14T06:42:41.860Z,99.90
2019-02-14T06:45:28.867Z,99.90
2019-02-14T06:48:15.833Z,99.90
2019-02-14T06:51:02.598Z,99.90
2019-02-14T06:53:50.134Z,99.90
2019-02-14T06:56:36.955Z,99.90
2019-02-14T06:59:23.953Z,99.90
2019-02-14T07:02:11.539Z,99.90
2019-02-14T07:05:17.456Z,99.90
2019-02-14T10:06:11.553Z,99.90
2019-02-14T10:09:00.607Z,99.90
2019-02-14T10:11:47.980Z,99.90
2019-02-14T10:14:35.451Z,99.90
2019-02-14T10:17:22.702Z,99.90
2019-02-14T10:20:19.111Z,99.90
2019-02-14T10:23:05.927Z,99.90
2019-02-14T10:25:53.407Z,99.90
2019-02-14T10:28:40.315Z,95.70
2019-02-14T10:31:27.634Z,94.50
2019-02-14T10:34:14.841Z,96.00
2019-02-14T10:37:01.518Z,85.70
2019-02-14T10:39:50.025Z,73.80
2019-02-14T10:42:56.223Z,66.90
2019-02-14T10:45:43.410Z,63.90
2019-02-14T10:48:30.395Z,57.40
2019-02-14T10:51:16.986Z,56.80
2019-02-14T10:54:23.807Z,54.80
2019-02-14T10:57:12.060Z,53.80
2019-02-14T11:00:00.390Z,55.80
2019-02-14T11:02:48.160Z,53.20
2019-02-14T11:05:35.973Z,53.60
2019-02-14T11:08:31.367Z,52.40
2019-02-14T11:11:13.675Z,51.10
2019-02-14T11:14:01.503Z,47.40
2019-02-14T11:16:49.271Z,48.70
2019-02-14T11:19:36.748Z,48.90
2019-02-14T11:22:25.075Z,49.90
2019-02-14T11:25:16.104Z,51.40
2019-02-14T11:28:03.562Z,54.70
2019-02-14T11:30:51.382Z,54.40
2019-02-14T11:33:40.865Z,55.20
2019-02-14T11:36:29.275Z,54.80
2019-02-14T11:39:17.356Z,53.10
2019-02-14T11:42:05.634Z,51.70
2019-02-14T11:44:53.586Z,50.70
2019-02-14T11:47:41.556Z,49.60
2019-02-14T11:50:29.591Z,48.80
2019-02-14T11:53:17.822Z,50.40
2019-02-14T11:56:05.938Z,51.10
2019-02-14T11:58:54.286Z,49.70
2019-02-14T12:01:42.020Z,53.20
2019-02-14T12:04:30.374Z,53.50
2019-02-14T12:07:18.133Z,56.30
2019-02-14T12:10:13.537Z,54.30
2019-02-14T12:12:59.055Z,55.50
2019-02-14T12:15:47.372Z,54.30
2019-02-14T12:18:35.742Z,55.30
2019-02-14T12:21:24.094Z,55.40
2019-02-14T12:24:11.998Z,53.50
2019-02-14T12:26:59.594Z,55.20
2019-02-14T12:29:46.671Z,55.20
2019-02-14T12:32:33.907Z,58.10
2019-02-14T12:35:21.280Z,57.50
2019-02-14T12:38:08.178Z,60.00
2019-02-14T12:40:54.907Z,62.80
2019-02-14T12:43:24.029Z,60.60
2019-02-14T12:45:53.127Z,62.90
2019-02-14T12:48:22.296Z,62.00
2019-02-14T12:50:51.464Z,59.10
2019-02-14T12:53:21.139Z,55.80
2019-02-14T12:55:50.817Z,54.90
2019-02-14T12:58:20.438Z,55.10
2019-02-14T13:00:49.930Z,53.00
2019-02-14T13:03:19.444Z,51.70
2019-02-14T13:05:48.945Z,50.80
2019-02-14T13:08:18.530Z,51.10
2019-02-14T13:10:48.031Z,50.60
2019-02-14T13:13:17.563Z,51.50
2019-02-14T13:15:47.128Z,52.20
2019-02-14T13:18:16.879Z,52.30
2019-02-14T13:20:46.388Z,53.60
2019-02-14T13:23:16.063Z,54.60
2019-02-14T13:25:45.857Z,56.40
2019-02-14T13:28:15.451Z,56.10
2019-02-14T13:30:45.028Z,58.20
2019-02-14T13:33:14.702Z,58.60
2019-02-14T13:35:44.355Z,58.20
2019-02-14T13:38:33.243Z,59.90
2019-02-14T13:41:02.948Z,60.90
2019-02-14T13:43:32.517Z,62.50
2019-02-14T13:46:02.040Z,60.40
2019-02-14T13:48:31.867Z,65.20
2019-02-14T13:51:01.363Z,64.00
2019-02-14T13:53:31.038Z,68.50
2019-02-14T13:56:00.541Z,75.50
2019-02-14T13:58:30.019Z,79.40
2019-02-14T14:00:59.877Z,80.30
2019-02-14T14:03:29.453Z,78.20
2019-02-14T14:05:59.069Z,81.60
2019-02-14T14:08:28.572Z,81.30
2019-02-14T14:10:58.173Z,82.60
2019-02-14T14:13:27.740Z,81.10
2019-02-14T14:15:57.273Z,85.60
2019-02-14T14:18:26.910Z,84.40
2019-02-14T14:20:56.438Z,83.50
2019-02-14T14:23:25.957Z,84.50
2019-02-14T14:25:55.667Z,87.00
2019-02-14T14:28:25.162Z,86.60
2019-02-14T14:30:54.782Z,84.50
2019-02-14T14:33:24.346Z,82.60
2019-02-14T14:35:53.879Z,82.90
2019-02-14T14:38:23.466Z,84.20
2019-02-14T14:40:53.172Z,82.80
2019-02-14T14:43:24.583Z,79.70
2019-02-14T14:45:55.778Z,81.30
2019-02-14T14:48:26.901Z,83.60
2019-02-14T14:50:56.431Z,90.80
2019-02-14T14:53:25.914Z,92.20
2019-02-14T14:55:55.619Z,91.60
2019-02-14T14:58:25.152Z,91.70
2019-02-14T15:00:54.798Z,91.10
2019-02-14T15:03:24.458Z,91.40
2019-02-14T15:05:54.087Z,91.00
2019-02-14T15:08:23.568Z,92.90
2019-02-14T15:10:53.098Z,92.80
2019-02-14T15:13:22.613Z,93.20
2019-02-14T15:15:52.196Z,92.90
2019-02-14T15:18:21.821Z,93.50
2019-02-14T15:20:51.392Z,94.90
2019-02-14T15:23:20.977Z,96.50
2019-02-14T15:25:50.473Z,97.60
2019-02-14T15:28:20.139Z,98.90
2019-02-14T15:30:49.635Z,99.90
2019-02-14T15:33:19.151Z,99.90
2019-02-14T15:35:48.823Z,99.90
2019-02-14T15:38:18.360Z,99.90
2019-02-14T15:40:48.011Z,99.90
2019-02-14T15:43:17.560Z,99.90
2019-02-14T15:45:47.074Z,99.90
2019-02-14T15:48:16.686Z,99.90
2019-02-14T15:50:46.401Z,99.90
2019-02-14T15:53:16.952Z,99.90
2019-02-14T15:55:45.763Z,99.90
2019-02-14T15:58:14.579Z,99.90
2019-02-14T16:00:43.267Z,99.90
2019-02-14T16:03:11.903Z,99.90
2019-02-14T16:05:42.537Z,99.90
2019-02-14T16:08:10.947Z,99.90
2019-02-14T16:10:39.583Z,99.90
2019-02-14T16:13:09.841Z,99.90
2019-02-14T16:15:38.690Z,99.90
2019-02-14T16:18:07.355Z,99.90
2019-02-14T16:20:36.041Z,99.90
2019-02-14T16:23:06.438Z,99.90
2019-02-14T16:25:35.197Z,99.90
2019-02-14T16:28:03.878Z,99.90
2019-02-14T16:30:33.350Z,99.90
2019-02-14T16:33:02.122Z,99.90
2019-02-14T16:35:30.891Z,99.90
2019-02-14T16:37:59.602Z,99.90
2019-02-14T16:40:36.471Z,99.90
2019-02-14T16:42:58.555Z,99.90
2019-02-14T16:45:27.287Z,99.90
2019-02-14T16:47:55.902Z,99.90
2019-02-14T16:50:27.459Z,99.90
2019-02-14T16:53:15.415Z,99.90
2019-02-14T16:55:44.124Z,99.90
2019-02-14T16:58:12.905Z,99.90
2019-02-14T17:00:41.600Z,99.90
2019-02-14T17:03:10.220Z,99.90
2019-02-14T17:05:38.932Z,99.90
2019-02-14T17:08:07.533Z,99.90
2019-02-14T17:10:37.248Z,99.90
2019-02-14T17:13:06.087Z,99.90
2019-02-14T17:15:34.814Z,99.90
2019-02-14T17:18:03.435Z,99.90
2019-02-14T17:20:32.065Z,99.90
2019-02-14T17:23:00.751Z,99.90
2019-02-14T17:25:29.474Z,99.90
2019-02-14T17:27:58.099Z,99.90
2019-02-14T17:30:27.005Z,99.90
2019-02-14T17:32:55.721Z,99.90
2019-02-14T17:35:24.338Z,99.90
2019-02-14T17:37:52.992Z,99.90
2019-02-14T17:40:21.825Z,99.90
2019-02-14T17:42:52.586Z,99.90
2019-02-14T17:45:22.374Z,99.90
2019-02-14T17:47:51.959Z,99.90
2019-02-14T17:50:21.450Z,99.90
2019-02-14T17:52:51.125Z,99.90
2019-02-14T17:55:20.680Z,99.90
2019-02-14T17:57:50.267Z,99.90
2019-02-14T18:00:19.978Z,99.90
2019-02-14T18:02:49.554Z,99.90
2019-02-14T18:05:19.060Z,99.90
2019-02-14T18:07:48.724Z,99.90
2019-02-14T18:10:18.249Z,99.90
2019-02-14T18:12:47.827Z,99.90
2019-02-14T18:15:17.622Z,99.90
2019-02-14T18:17:47.218Z,99.90
2019-02-14T18:20:16.819Z,99.90
2019-02-14T18:22:46.397Z,99.90
2019-02-14T18:25:16.133Z,99.90
2019-02-14T18:27:45.840Z,99.90
2019-02-14T18:30:15.525Z,99.90
2019-02-14T18:32:46.772Z,99.90
2019-02-14T18:35:16.391Z,99.90
2019-02-14T18:37:45.962Z,99.90
2019-02-14T18:40:34.923Z,99.90
2019-02-14T18:43:04.426Z,99.90
2019-02-14T18:45:34.260Z,99.90
2019-02-14T18:48:03.982Z,99.90
2019-02-14T18:50:33.639Z,99.90
2019-02-14T18:53:03.427Z,99.90
2019-02-14T18:55:33.014Z,99.90
2019-02-14T18:58:02.529Z,99.90
2019-02-14T19:00:32.132Z,99.90
2019-02-14T19:03:01.727Z,99.90
2019-02-14T19:05:31.331Z,99.90
2019-02-14T19:08:00.890Z,99.90
2019-02-14T19:10:30.615Z,99.90
2019-02-14T19:13:00.229Z,99.90
2019-02-14T19:15:29.823Z,99.90
2019-02-14T19:17:59.327Z,99.90
2019-02-14T19:20:29.011Z,99.90
2019-02-14T19:22:58.839Z,99.90
2019-02-14T19:25:29.555Z,99.90
2019-02-14T19:27:59.483Z,99.90
2019-02-14T19:30:28.965Z,99.90
2019-02-14T19:32:58.614Z,99.90
2019-02-14T19:35:28.459Z,99.90
2019-02-14T19:37:57.974Z,99.90
2019-02-14T19:40:27.669Z,99.90
2019-02-14T19:42:57.499Z,99.90
2019-02-14T19:45:36.345Z,99.90
2019-02-14T19:47:58.561Z,99.90
2019-02-14T19:50:28.103Z,99.90
2019-02-14T19:52:57.663Z,99.90
2019-02-14T19:55:27.230Z,99.90
2019-02-14T19:57:56.877Z,99.90
2019-02-14T20:00:26.535Z,99.90
2019-02-14T20:02:56.386Z,99.90
2019-02-14T20:05:26.035Z,99.90
2019-02-14T20:07:55.915Z,99.90
2019-02-14T20:10:25.571Z,99.90
2019-02-14T20:12:55.099Z,99.90
2019-02-14T20:15:24.670Z,99.90
2019-02-14T20:17:54.271Z,99.90
2019-02-14T20:20:23.773Z,99.90
2019-02-14T20:22:53.363Z,99.90
2019-02-14T20:25:28.236Z,99.90
2019-02-14T20:27:57.803Z,99.90
2019-02-14T20:30:50.827Z,99.90
2019-02-14T20:33:20.484Z,99.90
2019-02-14T20:35:50.183Z,99.90
2019-02-14T20:38:19.822Z,99.90
2019-02-14T20:40:49.382Z,99.90
2019-02-14T20:43:18.938Z,99.90
2019-02-14T20:45:48.628Z,99.90
2019-02-14T20:48:18.255Z,99.90
2019-02-14T20:50:47.183Z,99.90
2019-02-14T20:53:15.955Z,99.90
2019-02-14T20:55:44.706Z,99.90
2019-02-14T20:58:13.317Z,99.90
2019-02-14T21:00:42.040Z,99.90
2019-02-14T21:03:10.875Z,99.90
2019-02-14T21:05:39.689Z,99.90
2019-02-14T21:08:08.288Z,99.90
2019-02-14T21:10:36.942Z,99.90
2019-02-14T21:13:05.623Z,99.90
2019-02-14T21:15:34.346Z,99.90
2019-02-14T21:18:03.802Z,99.90
2019-02-14T21:20:33.479Z,99.90
2019-02-14T21:23:03.033Z,99.90
2019-02-14T21:25:37.640Z,99.90
2019-02-14T21:28:06.383Z,99.90
2019-02-14T21:30:36.315Z,99.90
2019-02-14T21:33:05.273Z,99.90
2019-02-14T21:35:33.936Z,99.90
2019-02-14T21:38:02.667Z,99.90
2019-02-14T21:40:50.805Z,99.90
2019-02-14T21:43:19.505Z,99.90
2019-02-14T21:45:48.293Z,99.90
2019-02-14T21:48:36.378Z,99.90
2019-02-14T21:51:05.237Z,99.90
2019-02-14T21:53:34.018Z,99.90
2019-02-14T21:56:02.841Z,99.90
2019-02-14T21:58:32.627Z,99.90
2019-02-14T22:01:02.318Z,99.90
2019-02-14T22:03:31.052Z,99.90
2019-02-14T22:05:59.787Z,99.90
2019-02-14T22:08:28.648Z,99.90
2019-02-14T22:10:57.423Z,99.90
2019-02-14T22:13:27.186Z,99.90
2019-02-14T22:15:56.094Z,99.90
2019-02-14T22:18:44.126Z,99.90
2019-02-14T22:21:13.042Z,99.90
2019-02-14T22:23:41.685Z,99.90
2019-02-14T22:26:10.534Z,99.90
2019-02-14T22:28:39.266Z,99.90
2019-02-14T22:31:08.043Z,99.90
2019-02-14T22:33:36.851Z,99.90
2019-02-14T22:36:05.518Z,99.90
2019-02-14T22:38:34.463Z,99.90
2019-02-14T22:41:03.290Z,99.90
2019-02-14T22:43:32.026Z,99.90
2019-02-14T22:46:00.955Z,99.90
2019-02-14T22:48:29.683Z,99.90
2019-02-14T22:50:58.287Z,99.90
2019-02-14T22:53:46.361Z,99.90
2019-02-14T22:56:34.364Z,99.90
2019-02-14T22:59:03.066Z,99.90
2019-02-14T23:01:31.747Z,99.90
2019-02-14T23:04:00.467Z,99.90
2019-02-14T23:06:29.491Z,99.90
2019-02-14T23:08:58.122Z,99.90
2019-02-14T23:11:26.794Z,99.90
2019-02-14T23:13:56.062Z,99.90
2019-02-14T23:16:44.001Z,99.90
2019-02-14T23:19:12.793Z,99.90
2019-02-14T23:21:41.478Z,99.90
2019-02-14T23:24:10.271Z,99.90
2019-02-14T23:26:38.867Z,99.90
2019-02-14T23:29:07.506Z,99.90
2019-02-14T23:31:36.238Z,99.90
2019-02-14T23:34:04.864Z,99.90
2019-02-14T23:36:33.564Z,99.90
2019-02-14T23:39:04.674Z,99.90
2019-02-14T23:41:33.423Z,99.90
2019-02-14T23:44:02.126Z,99.90
2019-02-14T23:46:31.602Z,99.90
2019-02-14T23:49:01.146Z,99.90
2019-02-14T23:51:29.983Z,99.90
2019-02-14T23:53:58.738Z,99.90
2019-02-14T23:56:27.378Z,99.90
2019-02-14T23:58:55.985Z,99.90
